sensor_id;sensor_type;location;lat;lon;timestamp;P1;durP1;ratioP1;P2;durP2;ratioP2
45208;SDS011;30951;43.994;26.260;2022-11-24T00:00:31;78.45;;;44.92;;
45208;SDS011;30951;43.994;26.260;2022-11-24T00:02:57;70.43;;;41.00;;
45208;SDS011;30951;43.994;26.260;2022-11-24T00:05:22;57.40;;;37.00;;
45208;SDS011;30951;43.994;26.260;2022-11-24T00:07:48;64.97;;;39.72;;
45208;SDS011;30951;43.994;26.260;2022-11-24T00:10:13;66.93;;;40.50;;
45208;SDS011;30951;43.994;26.260;2022-11-24T00:12:39;65.05;;;39.30;;
45208;SDS011;30951;43.994;26.260;2022-11-24T00:15:04;69.85;;;39.55;;
45208;SDS011;30951;43.994;26.260;2022-11-24T00:17:30;65.63;;;38.22;;
45208;SDS011;30951;43.994;26.260;2022-11-24T00:19:56;61.72;;;39.10;;
45208;SDS011;30951;43.994;26.260;2022-11-24T00:22:21;61.20;;;37.42;;
45208;SDS011;30951;43.994;26.260;2022-11-24T00:24:47;58.95;;;36.47;;
45208;SDS011;30951;43.994;26.260;2022-11-24T00:27:12;57.75;;;36.55;;
45208;SDS011;30951;43.994;26.260;2022-11-24T00:29:38;60.33;;;37.50;;
45208;SDS011;30951;43.994;26.260;2022-11-24T00:32:03;59.83;;;36.33;;
45208;SDS011;30951;43.994;26.260;2022-11-24T00:34:30;56.53;;;37.17;;
45208;SDS011;30951;43.994;26.260;2022-11-24T00:36:56;56.45;;;35.88;;
45208;SDS011;30951;43.994;26.260;2022-11-24T00:39:22;53.13;;;36.60;;
45208;SDS011;30951;43.994;26.260;2022-11-24T00:41:47;50.30;;;35.55;;
45208;SDS011;30951;43.994;26.260;2022-11-24T00:44:13;47.90;;;34.13;;
45208;SDS011;30951;43.994;26.260;2022-11-24T00:46:38;54.70;;;34.63;;
45208;SDS011;30951;43.994;26.260;2022-11-24T00:49:04;50.67;;;34.33;;
45208;SDS011;30951;43.994;26.260;2022-11-24T00:51:30;51.00;;;34.25;;
45208;SDS011;30951;43.994;26.260;2022-11-24T00:53:56;49.35;;;34.63;;
45208;SDS011;30951;43.994;26.260;2022-11-24T00:56:22;54.38;;;34.03;;
45208;SDS011;30951;43.994;26.260;2022-11-24T00:58:48;33.35;;;24.48;;
45208;SDS011;30951;43.994;26.260;2022-11-24T01:01:15;44.55;;;32.47;;
45208;SDS011;30951;43.994;26.260;2022-11-24T01:03:43;39.20;;;30.33;;
45208;SDS011;30951;43.994;26.260;2022-11-24T01:06:13;42.83;;;31.15;;
45208;SDS011;30951;43.994;26.260;2022-11-24T01:08:40;46.15;;;31.90;;
45208;SDS011;30951;43.994;26.260;2022-11-24T01:11:10;44.72;;;32.45;;
45208;SDS011;30951;43.994;26.260;2022-11-24T01:13:38;41.75;;;30.67;;
45208;SDS011;30951;43.994;26.260;2022-11-24T01:16:04;44.35;;;32.25;;
45208;SDS011;30951;43.994;26.260;2022-11-24T01:18:30;46.83;;;32.38;;
45208;SDS011;30951;43.994;26.260;2022-11-24T01:20:55;45.22;;;31.35;;
45208;SDS011;30951;43.994;26.260;2022-11-24T01:23:21;46.67;;;31.15;;
45208;SDS011;30951;43.994;26.260;2022-11-24T01:25:46;43.03;;;31.60;;
45208;SDS011;30951;43.994;26.260;2022-11-24T01:28:12;45.40;;;31.50;;
45208;SDS011;30951;43.994;26.260;2022-11-24T01:30:38;42.78;;;31.30;;
45208;SDS011;30951;43.994;26.260;2022-11-24T01:33:03;45.75;;;32.00;;
45208;SDS011;30951;43.994;26.260;2022-11-24T01:35:29;39.75;;;28.85;;
45208;SDS011;30951;43.994;26.260;2022-11-24T01:37:54;40.72;;;29.25;;
45208;SDS011;30951;43.994;26.260;2022-11-24T01:40:20;37.08;;;28.45;;
45208;SDS011;30951;43.994;26.260;2022-11-24T01:42:47;29.35;;;24.85;;
45208;SDS011;30951;43.994;26.260;2022-11-24T01:45:31;34.58;;;27.55;;
45208;SDS011;30951;43.994;26.260;2022-11-24T01:48:00;41.15;;;29.48;;
45208;SDS011;30951;43.994;26.260;2022-11-24T01:50:28;36.85;;;28.35;;
45208;SDS011;30951;43.994;26.260;2022-11-24T01:52:54;36.20;;;26.90;;
45208;SDS011;30951;43.994;26.260;2022-11-24T01:55:20;41.83;;;29.83;;
45208;SDS011;30951;43.994;26.260;2022-11-24T01:57:52;35.58;;;27.77;;
45208;SDS011;30951;43.994;26.260;2022-11-24T02:00:21;37.05;;;28.40;;
45208;SDS011;30951;43.994;26.260;2022-11-24T02:02:47;35.08;;;27.52;;
45208;SDS011;30951;43.994;26.260;2022-11-24T02:05:23;37.45;;;28.95;;
45208;SDS011;30951;43.994;26.260;2022-11-24T02:07:51;40.67;;;29.60;;
45208;SDS011;30951;43.994;26.260;2022-11-24T02:10:18;40.60;;;32.22;;
45208;SDS011;30951;43.994;26.260;2022-11-24T02:12:45;39.85;;;28.73;;
45208;SDS011;30951;43.994;26.260;2022-11-24T02:15:12;41.15;;;30.20;;
45208;SDS011;30951;43.994;26.260;2022-11-24T02:17:38;36.97;;;29.05;;
45208;SDS011;30951;43.994;26.260;2022-11-24T02:20:05;36.92;;;28.38;;
45208;SDS011;30951;43.994;26.260;2022-11-24T02:22:34;45.47;;;30.10;;
45208;SDS011;30951;43.994;26.260;2022-11-24T02:28:09;45.78;;;31.92;;
45208;SDS011;30951;43.994;26.260;2022-11-24T02:30:37;46.67;;;32.03;;
45208;SDS011;30951;43.994;26.260;2022-11-24T02:33:03;46.58;;;33.53;;
45208;SDS011;30951;43.994;26.260;2022-11-24T02:35:29;48.28;;;32.85;;
45208;SDS011;30951;43.994;26.260;2022-11-24T02:37:55;53.78;;;33.63;;
45208;SDS011;30951;43.994;26.260;2022-11-24T02:40:21;50.92;;;33.35;;
45208;SDS011;30951;43.994;26.260;2022-11-24T02:42:50;45.95;;;32.20;;
45208;SDS011;30951;43.994;26.260;2022-11-24T02:45:18;44.35;;;32.53;;
45208;SDS011;30951;43.994;26.260;2022-11-24T02:47:44;51.42;;;37.35;;
45208;SDS011;30951;43.994;26.260;2022-11-24T02:50:10;52.85;;;38.75;;
45208;SDS011;30951;43.994;26.260;2022-11-24T02:52:35;55.30;;;37.72;;
45208;SDS011;30951;43.994;26.260;2022-11-24T02:55:01;57.00;;;39.40;;
45208;SDS011;30951;43.994;26.260;2022-11-24T02:57:27;60.00;;;39.80;;
45208;SDS011;30951;43.994;26.260;2022-11-24T02:59:52;60.22;;;42.20;;
45208;SDS011;30951;43.994;26.260;2022-11-24T03:02:17;56.00;;;39.58;;
45208;SDS011;30951;43.994;26.260;2022-11-24T03:04:43;51.70;;;37.22;;
45208;SDS011;30951;43.994;26.260;2022-11-24T03:07:08;45.42;;;31.80;;
45208;SDS011;30951;43.994;26.260;2022-11-24T03:09:34;50.90;;;35.10;;
45208;SDS011;30951;43.994;26.260;2022-11-24T03:12:00;46.35;;;34.75;;
45208;SDS011;30951;43.994;26.260;2022-11-24T03:14:25;49.63;;;36.55;;
45208;SDS011;30951;43.994;26.260;2022-11-24T03:16:51;51.90;;;39.22;;
45208;SDS011;30951;43.994;26.260;2022-11-24T03:19:16;56.08;;;40.85;;
45208;SDS011;30951;43.994;26.260;2022-11-24T03:21:41;55.90;;;42.53;;
45208;SDS011;30951;43.994;26.260;2022-11-24T03:24:07;60.75;;;41.45;;
45208;SDS011;30951;43.994;26.260;2022-11-24T03:26:33;65.97;;;41.90;;
45208;SDS011;30951;43.994;26.260;2022-11-24T03:28:59;56.13;;;40.20;;
45208;SDS011;30951;43.994;26.260;2022-11-24T03:31:24;54.28;;;38.85;;
45208;SDS011;30951;43.994;26.260;2022-11-24T03:33:50;60.08;;;36.72;;
45208;SDS011;30951;43.994;26.260;2022-11-24T03:36:15;48.05;;;35.58;;
45208;SDS011;30951;43.994;26.260;2022-11-24T03:38:41;52.53;;;38.45;;
45208;SDS011;30951;43.994;26.260;2022-11-24T03:41:07;56.28;;;38.42;;
45208;SDS011;30951;43.994;26.260;2022-11-24T03:43:32;52.75;;;36.97;;
45208;SDS011;30951;43.994;26.260;2022-11-24T03:45:58;46.00;;;34.83;;
45208;SDS011;30951;43.994;26.260;2022-11-24T03:48:23;48.88;;;36.10;;
45208;SDS011;30951;43.994;26.260;2022-11-24T03:50:55;55.92;;;41.00;;
45208;SDS011;30951;43.994;26.260;2022-11-24T03:53:23;65.13;;;44.20;;
45208;SDS011;30951;43.994;26.260;2022-11-24T03:55:50;64.80;;;43.92;;
45208;SDS011;30951;43.994;26.260;2022-11-24T03:58:15;58.05;;;41.95;;
45208;SDS011;30951;43.994;26.260;2022-11-24T04:00:41;67.95;;;44.75;;
45208;SDS011;30951;43.994;26.260;2022-11-24T04:03:06;65.63;;;43.75;;
45208;SDS011;30951;43.994;26.260;2022-11-24T04:05:32;69.38;;;47.65;;
45208;SDS011;30951;43.994;26.260;2022-11-24T04:08:00;69.55;;;45.72;;
45208;SDS011;30951;43.994;26.260;2022-11-24T04:10:28;75.28;;;48.90;;
45208;SDS011;30951;43.994;26.260;2022-11-24T04:12:54;80.88;;;51.95;;
45208;SDS011;30951;43.994;26.260;2022-11-24T04:15:20;84.35;;;51.70;;
45208;SDS011;30951;43.994;26.260;2022-11-24T04:17:48;72.90;;;46.60;;
45208;SDS011;30951;43.994;26.260;2022-11-24T04:20:14;67.88;;;44.75;;
45208;SDS011;30951;43.994;26.260;2022-11-24T04:22:40;78.80;;;50.10;;
45208;SDS011;30951;43.994;26.260;2022-11-24T04:25:07;73.63;;;47.15;;
45208;SDS011;30951;43.994;26.260;2022-11-24T04:27:33;67.47;;;44.88;;
45208;SDS011;30951;43.994;26.260;2022-11-24T04:29:59;82.60;;;52.25;;
45208;SDS011;30951;43.994;26.260;2022-11-24T04:32:25;79.07;;;49.25;;
45208;SDS011;30951;43.994;26.260;2022-11-24T04:34:50;88.68;;;51.05;;
45208;SDS011;30951;43.994;26.260;2022-11-24T04:37:16;82.70;;;50.38;;
45208;SDS011;30951;43.994;26.260;2022-11-24T04:39:41;82.45;;;50.00;;
45208;SDS011;30951;43.994;26.260;2022-11-24T04:42:07;77.20;;;50.67;;
45208;SDS011;30951;43.994;26.260;2022-11-24T04:44:32;81.10;;;49.35;;
45208;SDS011;30951;43.994;26.260;2022-11-24T04:46:58;75.82;;;44.92;;
45208;SDS011;30951;43.994;26.260;2022-11-24T04:49:24;84.38;;;49.70;;
45208;SDS011;30951;43.994;26.260;2022-11-24T04:51:50;67.47;;;39.40;;
45208;SDS011;30951;43.994;26.260;2022-11-24T04:54:15;63.03;;;40.78;;
45208;SDS011;30951;43.994;26.260;2022-11-24T04:56:41;77.78;;;45.03;;
45208;SDS011;30951;43.994;26.260;2022-11-24T04:59:11;61.28;;;36.88;;
45208;SDS011;30951;43.994;26.260;2022-11-24T05:01:40;61.67;;;38.88;;
45208;SDS011;30951;43.994;26.260;2022-11-24T05:04:07;69.30;;;41.03;;
45208;SDS011;30951;43.994;26.260;2022-11-24T05:06:39;72.80;;;41.97;;
45208;SDS011;30951;43.994;26.260;2022-11-24T05:09:05;63.28;;;40.72;;
45208;SDS011;30951;43.994;26.260;2022-11-24T05:11:31;63.17;;;39.25;;
45208;SDS011;30951;43.994;26.260;2022-11-24T05:13:57;68.00;;;38.55;;
45208;SDS011;30951;43.994;26.260;2022-11-24T05:16:23;66.95;;;39.90;;
45208;SDS011;30951;43.994;26.260;2022-11-24T05:18:49;74.55;;;44.47;;
45208;SDS011;30951;43.994;26.260;2022-11-24T05:21:14;77.88;;;44.92;;
45208;SDS011;30951;43.994;26.260;2022-11-24T05:23:40;70.90;;;43.88;;
45208;SDS011;30951;43.994;26.260;2022-11-24T05:26:05;77.78;;;45.67;;
45208;SDS011;30951;43.994;26.260;2022-11-24T05:28:31;71.95;;;39.60;;
45208;SDS011;30951;43.994;26.260;2022-11-24T05:31:00;76.22;;;45.28;;
45208;SDS011;30951;43.994;26.260;2022-11-24T05:33:26;69.43;;;39.05;;
45208;SDS011;30951;43.994;26.260;2022-11-24T05:35:52;70.47;;;40.03;;
45208;SDS011;30951;43.994;26.260;2022-11-24T05:38:18;76.28;;;39.42;;
45208;SDS011;30951;43.994;26.260;2022-11-24T05:40:45;69.95;;;38.88;;
45208;SDS011;30951;43.994;26.260;2022-11-24T05:43:11;62.80;;;35.78;;
45208;SDS011;30951;43.994;26.260;2022-11-24T05:45:37;64.90;;;37.45;;
45208;SDS011;30951;43.994;26.260;2022-11-24T05:48:03;72.90;;;37.17;;
45208;SDS011;30951;43.994;26.260;2022-11-24T05:50:30;66.20;;;33.15;;
45208;SDS011;30951;43.994;26.260;2022-11-24T05:52:56;69.70;;;34.63;;
45208;SDS011;30951;43.994;26.260;2022-11-24T05:55:22;66.35;;;32.58;;
45208;SDS011;30951;43.994;26.260;2022-11-24T05:57:48;58.05;;;31.25;;
45208;SDS011;30951;43.994;26.260;2022-11-24T06:00:14;64.50;;;31.85;;
45208;SDS011;30951;43.994;26.260;2022-11-24T06:02:42;60.60;;;28.95;;
45208;SDS011;30951;43.994;26.260;2022-11-24T06:05:07;63.63;;;30.48;;
45208;SDS011;30951;43.994;26.260;2022-11-24T06:07:33;67.85;;;31.40;;
45208;SDS011;30951;43.994;26.260;2022-11-24T06:09:58;62.95;;;31.15;;
45208;SDS011;30951;43.994;26.260;2022-11-24T06:12:24;65.50;;;29.63;;
45208;SDS011;30951;43.994;26.260;2022-11-24T06:14:49;61.17;;;29.30;;
45208;SDS011;30951;43.994;26.260;2022-11-24T06:17:15;62.97;;;28.55;;
45208;SDS011;30951;43.994;26.260;2022-11-24T06:19:40;59.72;;;26.10;;
45208;SDS011;30951;43.994;26.260;2022-11-24T06:22:05;54.28;;;26.13;;
45208;SDS011;30951;43.994;26.260;2022-11-24T06:24:31;51.30;;;21.98;;
45208;SDS011;30951;43.994;26.260;2022-11-24T06:26:56;60.00;;;25.48;;
45208;SDS011;30951;43.994;26.260;2022-11-24T06:29:22;51.03;;;23.08;;
45208;SDS011;30951;43.994;26.260;2022-11-24T06:31:47;65.38;;;26.02;;
45208;SDS011;30951;43.994;26.260;2022-11-24T06:34:13;59.58;;;25.85;;
45208;SDS011;30951;43.994;26.260;2022-11-24T06:36:38;62.10;;;26.40;;
45208;SDS011;30951;43.994;26.260;2022-11-24T06:39:04;62.50;;;29.30;;
45208;SDS011;30951;43.994;26.260;2022-11-24T06:41:30;68.60;;;31.67;;
45208;SDS011;30951;43.994;26.260;2022-11-24T06:43:56;61.47;;;30.73;;
45208;SDS011;30951;43.994;26.260;2022-11-24T06:46:21;52.22;;;26.58;;
45208;SDS011;30951;43.994;26.260;2022-11-24T06:48:49;46.50;;;25.17;;
45208;SDS011;30951;43.994;26.260;2022-11-24T06:51:15;49.72;;;23.63;;
45208;SDS011;30951;43.994;26.260;2022-11-24T06:53:42;43.25;;;19.90;;
45208;SDS011;30951;43.994;26.260;2022-11-24T06:56:09;37.15;;;17.80;;
45208;SDS011;30951;43.994;26.260;2022-11-24T06:58:41;32.90;;;18.08;;
45208;SDS011;30951;43.994;26.260;2022-11-24T07:01:07;39.10;;;19.65;;
45208;SDS011;30951;43.994;26.260;2022-11-24T07:03:33;44.33;;;19.40;;
45208;SDS011;30951;43.994;26.260;2022-11-24T07:05:59;31.50;;;16.55;;
45208;SDS011;30951;43.994;26.260;2022-11-24T07:08:24;34.28;;;19.95;;
45208;SDS011;30951;43.994;26.260;2022-11-24T07:10:50;35.60;;;18.50;;
45208;SDS011;30951;43.994;26.260;2022-11-24T07:13:17;36.55;;;19.80;;
45208;SDS011;30951;43.994;26.260;2022-11-24T07:15:43;34.60;;;17.92;;
45208;SDS011;30951;43.994;26.260;2022-11-24T07:18:09;29.88;;;18.15;;
45208;SDS011;30951;43.994;26.260;2022-11-24T07:20:34;29.73;;;16.00;;
45208;SDS011;30951;43.994;26.260;2022-11-24T07:23:00;28.45;;;16.92;;
45208;SDS011;30951;43.994;26.260;2022-11-24T07:25:25;29.30;;;16.15;;
45208;SDS011;30951;43.994;26.260;2022-11-24T07:27:57;30.95;;;16.35;;
45208;SDS011;30951;43.994;26.260;2022-11-24T07:30:24;29.45;;;16.90;;
45208;SDS011;30951;43.994;26.260;2022-11-24T07:32:50;33.88;;;17.73;;
45208;SDS011;30951;43.994;26.260;2022-11-24T07:35:16;28.48;;;17.13;;
45208;SDS011;30951;43.994;26.260;2022-11-24T07:37:42;30.10;;;17.63;;
45208;SDS011;30951;43.994;26.260;2022-11-24T07:40:08;28.35;;;17.80;;
45208;SDS011;30951;43.994;26.260;2022-11-24T07:42:34;36.53;;;18.80;;
45208;SDS011;30951;43.994;26.260;2022-11-24T07:44:59;32.35;;;19.88;;
45208;SDS011;30951;43.994;26.260;2022-11-24T07:47:25;32.17;;;15.15;;
45208;SDS011;30951;43.994;26.260;2022-11-24T07:49:50;21.77;;;13.05;;
45208;SDS011;30951;43.994;26.260;2022-11-24T07:52:16;22.33;;;12.75;;
45208;SDS011;30951;43.994;26.260;2022-11-24T07:54:41;26.73;;;13.23;;
45208;SDS011;30951;43.994;26.260;2022-11-24T07:57:07;26.33;;;16.10;;
45208;SDS011;30951;43.994;26.260;2022-11-24T07:59:32;24.35;;;14.90;;
45208;SDS011;30951;43.994;26.260;2022-11-24T08:01:58;25.05;;;14.25;;
45208;SDS011;30951;43.994;26.260;2022-11-24T08:04:23;22.15;;;12.38;;
45208;SDS011;30951;43.994;26.260;2022-11-24T08:06:49;22.95;;;11.40;;
45208;SDS011;30951;43.994;26.260;2022-11-24T08:09:14;18.20;;;11.55;;
45208;SDS011;30951;43.994;26.260;2022-11-24T08:11:40;20.88;;;12.75;;
45208;SDS011;30951;43.994;26.260;2022-11-24T08:14:05;25.65;;;14.07;;
45208;SDS011;30951;43.994;26.260;2022-11-24T08:16:31;27.38;;;14.57;;
45208;SDS011;30951;43.994;26.260;2022-11-24T08:18:56;30.05;;;16.10;;
45208;SDS011;30951;43.994;26.260;2022-11-24T08:21:23;30.08;;;14.77;;
45208;SDS011;30951;43.994;26.260;2022-11-24T08:23:52;23.85;;;12.70;;
45208;SDS011;30951;43.994;26.260;2022-11-24T08:26:21;25.85;;;13.52;;
45208;SDS011;30951;43.994;26.260;2022-11-24T08:28:52;28.88;;;14.07;;
45208;SDS011;30951;43.994;26.260;2022-11-24T08:31:20;28.88;;;14.35;;
45208;SDS011;30951;43.994;26.260;2022-11-24T08:33:46;23.00;;;12.35;;
45208;SDS011;30951;43.994;26.260;2022-11-24T08:36:12;21.98;;;12.40;;
45208;SDS011;30951;43.994;26.260;2022-11-24T08:38:39;21.83;;;10.40;;
45208;SDS011;30951;43.994;26.260;2022-11-24T08:41:07;24.70;;;14.32;;
45208;SDS011;30951;43.994;26.260;2022-11-24T08:43:35;23.23;;;13.05;;
45208;SDS011;30951;43.994;26.260;2022-11-24T08:46:01;22.42;;;13.27;;
45208;SDS011;30951;43.994;26.260;2022-11-24T08:48:28;22.17;;;13.02;;
45208;SDS011;30951;43.994;26.260;2022-11-24T08:50:53;19.50;;;10.85;;
45208;SDS011;30951;43.994;26.260;2022-11-24T08:53:19;22.08;;;10.95;;
45208;SDS011;30951;43.994;26.260;2022-11-24T08:55:45;26.85;;;12.98;;
45208;SDS011;30951;43.994;26.260;2022-11-24T08:58:10;27.30;;;14.77;;
45208;SDS011;30951;43.994;26.260;2022-11-24T09:00:36;30.90;;;15.95;;
45208;SDS011;30951;43.994;26.260;2022-11-24T09:03:01;32.55;;;14.88;;
45208;SDS011;30951;43.994;26.260;2022-11-24T09:05:27;33.28;;;17.17;;
45208;SDS011;30951;43.994;26.260;2022-11-24T09:07:52;30.80;;;14.07;;
45208;SDS011;30951;43.994;26.260;2022-11-24T09:10:18;34.35;;;13.82;;
45208;SDS011;30951;43.994;26.260;2022-11-24T09:12:44;30.30;;;14.20;;
45208;SDS011;30951;43.994;26.260;2022-11-24T09:15:10;32.08;;;14.80;;
45208;SDS011;30951;43.994;26.260;2022-11-24T09:17:36;25.08;;;12.93;;
45208;SDS011;30951;43.994;26.260;2022-11-24T09:20:02;25.27;;;13.52;;
45208;SDS011;30951;43.994;26.260;2022-11-24T09:22:29;23.23;;;12.88;;
45208;SDS011;30951;43.994;26.260;2022-11-24T09:24:55;26.98;;;14.35;;
45208;SDS011;30951;43.994;26.260;2022-11-24T09:27:21;22.33;;;12.10;;
45208;SDS011;30951;43.994;26.260;2022-11-24T09:29:46;24.02;;;13.48;;
45208;SDS011;30951;43.994;26.260;2022-11-24T09:32:12;22.80;;;12.43;;
45208;SDS011;30951;43.994;26.260;2022-11-24T09:34:37;23.17;;;13.38;;
45208;SDS011;30951;43.994;26.260;2022-11-24T09:37:03;22.00;;;12.40;;
45208;SDS011;30951;43.994;26.260;2022-11-24T09:39:28;22.77;;;12.50;;
45208;SDS011;30951;43.994;26.260;2022-11-24T09:44:37;31.92;;;15.60;;
45208;SDS011;30951;43.994;26.260;2022-11-24T09:48:14;28.98;;;14.77;;
45208;SDS011;30951;43.994;26.260;2022-11-24T09:50:36;39.40;;;23.40;;
45208;SDS011;30951;43.994;26.260;2022-11-24T09:55:32;31.05;;;18.65;;
45208;SDS011;30951;43.994;26.260;2022-11-24T10:00:49;21.83;;;13.85;;
45208;SDS011;30951;43.994;26.260;2022-11-24T10:03:23;21.88;;;13.73;;
45208;SDS011;30951;43.994;26.260;2022-11-24T10:05:57;26.20;;;15.67;;
45208;SDS011;30951;43.994;26.260;2022-11-24T10:11:06;21.15;;;12.63;;
45208;SDS011;30951;43.994;26.260;2022-11-24T10:27:17;19.63;;;11.20;;
45208;SDS011;30951;43.994;26.260;2022-11-24T10:29:44;21.25;;;11.68;;
45208;SDS011;30951;43.994;26.260;2022-11-24T10:32:16;19.48;;;12.15;;
45208;SDS011;30951;43.994;26.260;2022-11-24T10:34:50;22.85;;;12.23;;
45208;SDS011;30951;43.994;26.260;2022-11-24T10:37:18;21.70;;;11.73;;
45208;SDS011;30951;43.994;26.260;2022-11-24T10:42:30;24.00;;;12.82;;
45208;SDS011;30951;43.994;26.260;2022-11-24T10:45:19;22.75;;;12.38;;
45208;SDS011;30951;43.994;26.260;2022-11-24T10:47:44;25.83;;;13.38;;
45208;SDS011;30951;43.994;26.260;2022-11-24T10:50:23;27.05;;;14.65;;
45208;SDS011;30951;43.994;26.260;2022-11-24T10:52:57;36.33;;;16.38;;
45208;SDS011;30951;43.994;26.260;2022-11-24T10:58:19;28.80;;;15.60;;
45208;SDS011;30951;43.994;26.260;2022-11-24T11:00:47;28.88;;;16.95;;
45208;SDS011;30951;43.994;26.260;2022-11-24T11:08:22;40.58;;;20.13;;
45208;SDS011;30951;43.994;26.260;2022-11-24T11:13:45;40.20;;;20.23;;
45208;SDS011;30951;43.994;26.260;2022-11-24T11:16:31;46.17;;;22.95;;
45208;SDS011;30951;43.994;26.260;2022-11-24T11:18:57;48.90;;;22.77;;
45208;SDS011;30951;43.994;26.260;2022-11-24T11:21:33;43.92;;;24.48;;
45208;SDS011;30951;43.994;26.260;2022-11-24T11:24:00;44.47;;;21.92;;
45208;SDS011;30951;43.994;26.260;2022-11-24T11:26:35;36.88;;;20.45;;
45208;SDS011;30951;43.994;26.260;2022-11-24T11:31:34;34.88;;;19.88;;
45208;SDS011;30951;43.994;26.260;2022-11-24T11:34:04;31.23;;;14.63;;
45208;SDS011;30951;43.994;26.260;2022-11-24T11:36:58;38.90;;;19.33;;
45208;SDS011;30951;43.994;26.260;2022-11-24T11:41:57;27.17;;;16.02;;
45208;SDS011;30951;43.994;26.260;2022-11-24T11:44:38;33.78;;;17.23;;
45208;SDS011;30951;43.994;26.260;2022-11-24T11:47:27;27.45;;;16.77;;
45208;SDS011;30951;43.994;26.260;2022-11-24T11:49:55;32.13;;;19.98;;
45208;SDS011;30951;43.994;26.260;2022-11-24T11:52:28;28.45;;;17.83;;
45208;SDS011;30951;43.994;26.260;2022-11-24T12:00:22;37.28;;;19.58;;
45208;SDS011;30951;43.994;26.260;2022-11-24T12:08:00;20.52;;;13.95;;
45208;SDS011;30951;43.994;26.260;2022-11-24T12:15:53;13.63;;;9.10;;
45208;SDS011;30951;43.994;26.260;2022-11-24T12:23:47;3.47;;;3.17;;
45208;SDS011;30951;43.994;26.260;2022-11-24T12:29:24;2.58;;;2.38;;
45208;SDS011;30951;43.994;26.260;2022-11-24T12:32:24;2.00;;;1.80;;
45208;SDS011;30951;43.994;26.260;2022-11-24T12:40:14;2.70;;;1.92;;
45208;SDS011;30951;43.994;26.260;2022-11-24T12:51:00;8.88;;;3.38;;
45208;SDS011;30951;43.994;26.260;2022-11-24T12:53:28;5.65;;;3.55;;
45208;SDS011;30951;43.994;26.260;2022-11-24T12:55:57;3.45;;;2.72;;
45208;SDS011;30951;43.994;26.260;2022-11-24T12:58:49;4.03;;;3.50;;
45208;SDS011;30951;43.994;26.260;2022-11-24T13:09:18;12.02;;;6.18;;
45208;SDS011;30951;43.994;26.260;2022-11-24T13:11:44;9.02;;;5.78;;
45208;SDS011;30951;43.994;26.260;2022-11-24T13:14:14;8.35;;;5.82;;
45208;SDS011;30951;43.994;26.260;2022-11-24T13:16:47;6.40;;;4.93;;
45208;SDS011;30951;43.994;26.260;2022-11-24T13:19:24;8.70;;;6.22;;
45208;SDS011;30951;43.994;26.260;2022-11-24T13:22:01;7.82;;;6.15;;
45208;SDS011;30951;43.994;26.260;2022-11-24T13:24:35;18.90;;;7.75;;
45208;SDS011;30951;43.994;26.260;2022-11-24T13:29:40;7.93;;;5.90;;
45208;SDS011;30951;43.994;26.260;2022-11-24T13:37:03;11.13;;;7.13;;
45208;SDS011;30951;43.994;26.260;2022-11-24T13:39:46;13.32;;;6.70;;
45208;SDS011;30951;43.994;26.260;2022-11-24T13:42:14;10.40;;;6.50;;
45208;SDS011;30951;43.994;26.260;2022-11-24T13:44:46;10.52;;;7.38;;
45208;SDS011;30951;43.994;26.260;2022-11-24T13:49:57;7.35;;;6.00;;
45208;SDS011;30951;43.994;26.260;2022-11-24T13:57:37;7.85;;;5.78;;
45208;SDS011;30951;43.994;26.260;2022-11-24T14:00:13;8.50;;;6.95;;
45208;SDS011;30951;43.994;26.260;2022-11-24T14:02:43;8.55;;;6.32;;
45208;SDS011;30951;43.994;26.260;2022-11-24T14:05:12;8.30;;;7.28;;
45208;SDS011;30951;43.994;26.260;2022-11-24T14:07:45;9.70;;;7.20;;
45208;SDS011;30951;43.994;26.260;2022-11-24T14:10:13;10.30;;;7.57;;
45208;SDS011;30951;43.994;26.260;2022-11-24T14:12:42;11.32;;;7.63;;
45208;SDS011;30951;43.994;26.260;2022-11-24T14:15:22;10.70;;;7.15;;
45208;SDS011;30951;43.994;26.260;2022-11-24T14:17:49;11.23;;;7.32;;
45208;SDS011;30951;43.994;26.260;2022-11-24T14:20:24;7.28;;;5.43;;
45208;SDS011;30951;43.994;26.260;2022-11-24T14:22:51;9.80;;;6.50;;
45208;SDS011;30951;43.994;26.260;2022-11-24T14:25:19;9.25;;;6.45;;
45208;SDS011;30951;43.994;26.260;2022-11-24T14:27:47;10.02;;;7.32;;
45208;SDS011;30951;43.994;26.260;2022-11-24T14:32:38;15.57;;;8.65;;
45208;SDS011;30951;43.994;26.260;2022-11-24T14:35:49;11.45;;;8.18;;
45208;SDS011;30951;43.994;26.260;2022-11-24T14:37:56;10.60;;;7.55;;
45208;SDS011;30951;43.994;26.260;2022-11-24T14:40:42;48.40;;;15.13;;
45208;SDS011;30951;43.994;26.260;2022-11-24T14:43:17;10.68;;;7.28;;
45208;SDS011;30951;43.994;26.260;2022-11-24T14:46:17;10.27;;;8.60;;
45208;SDS011;30951;43.994;26.260;2022-11-24T14:48:45;12.82;;;7.95;;
45208;SDS011;30951;43.994;26.260;2022-11-24T14:51:13;10.20;;;6.50;;
45208;SDS011;30951;43.994;26.260;2022-11-24T14:53:44;10.13;;;6.93;;
45208;SDS011;30951;43.994;26.260;2022-11-24T14:56:31;10.60;;;7.68;;
45208;SDS011;30951;43.994;26.260;2022-11-24T14:58:58;15.75;;;9.80;;
45208;SDS011;30951;43.994;26.260;2022-11-24T15:06:45;22.33;;;12.52;;
45208;SDS011;30951;43.994;26.260;2022-11-24T15:09:25;18.38;;;10.07;;
45208;SDS011;30951;43.994;26.260;2022-11-24T15:11:55;21.10;;;13.20;;
45208;SDS011;30951;43.994;26.260;2022-11-24T15:14:43;21.85;;;12.98;;
45208;SDS011;30951;43.994;26.260;2022-11-24T15:17:18;13.45;;;9.35;;
45208;SDS011;30951;43.994;26.260;2022-11-24T15:19:45;14.57;;;10.18;;
45208;SDS011;30951;43.994;26.260;2022-11-24T15:22:26;19.25;;;10.00;;
45208;SDS011;30951;43.994;26.260;2022-11-24T15:24:58;21.60;;;15.18;;
45208;SDS011;30951;43.994;26.260;2022-11-24T15:27:24;16.23;;;10.75;;
45208;SDS011;30951;43.994;26.260;2022-11-24T15:29:49;19.17;;;11.88;;
45208;SDS011;30951;43.994;26.260;2022-11-24T15:32:15;15.55;;;8.38;;
45208;SDS011;30951;43.994;26.260;2022-11-24T15:34:40;14.48;;;10.07;;
45208;SDS011;30951;43.994;26.260;2022-11-24T15:37:09;14.50;;;10.55;;
45208;SDS011;30951;43.994;26.260;2022-11-24T15:39:35;18.17;;;10.35;;
45208;SDS011;30951;43.994;26.260;2022-11-24T15:42:00;18.00;;;10.82;;
45208;SDS011;30951;43.994;26.260;2022-11-24T15:44:26;14.82;;;9.95;;
45208;SDS011;30951;43.994;26.260;2022-11-24T15:46:51;22.45;;;10.80;;
45208;SDS011;30951;43.994;26.260;2022-11-24T15:49:19;18.17;;;11.43;;
45208;SDS011;30951;43.994;26.260;2022-11-24T15:51:45;17.65;;;11.73;;
45208;SDS011;30951;43.994;26.260;2022-11-24T15:54:12;18.27;;;11.52;;
45208;SDS011;30951;43.994;26.260;2022-11-24T15:56:39;17.40;;;11.40;;
45208;SDS011;30951;43.994;26.260;2022-11-24T15:59:07;15.48;;;11.45;;
45208;SDS011;30951;43.994;26.260;2022-11-24T16:01:37;17.35;;;11.65;;
45208;SDS011;30951;43.994;26.260;2022-11-24T16:04:03;22.55;;;13.13;;
45208;SDS011;30951;43.994;26.260;2022-11-24T16:06:29;21.58;;;13.70;;
45208;SDS011;30951;43.994;26.260;2022-11-24T16:08:54;23.75;;;12.88;;
45208;SDS011;30951;43.994;26.260;2022-11-24T16:11:20;19.60;;;12.75;;